Time;durP1;ratioP1;P1;durP2;ratioP2;P2;SDS_P1;SDS_P2;PMS_P1;PMS_P2;Temp;Humidity;BMP_temperature;BMP_pressure;BME280_temperature;BME280_humidity;BME280_pressure;Samples;Min_cycle;Max_cycle;Signal;HPM_P1;HPM_P2
2024/01/30 00:02:31;;;;;;;11.27;6.13;;;;;;;5.63;61.89;96364.50;4909581;29;20568;-84
2024/01/30 00:05:12;;;;;;;8.50;6.50;;;;;;;5.63;62.08;96361.94;4919184;29;20206;-84
2024/01/30 00:07:45;;;;;;;11.90;6.53;;;;;;;5.59;61.93;96357.22;4918685;28;20667;-83
2024/01/30 00:13:21;;;;;;;9.90;5.90;;;;;;;5.52;62.10;96374.81;4898567;29;20692;-84
2024/01/30 00:15:58;;;;;;;9.00;6.03;;;;;;;5.48;62.14;96384.47;4900051;29;20265;-84
2024/01/30 00:18:32;;;;;;;6.83;5.70;;;;;;;5.43;62.54;96388.31;4906810;29;20617;-84
2024/01/30 00:21:21;;;;;;;7.80;6.27;;;;;;;5.42;62.37;96400.28;4918311;29;20232;-85
2024/01/30 00:26:41;;;;;;;11.17;6.03;;;;;;;5.42;62.55;96400.28;4916965;28;20232;-85
2024/01/30 00:29:19;;;;;;;8.07;5.80;;;;;;;5.31;62.75;96391.88;4917787;29;20293;-87
2024/01/30 00:31:52;;;;;;;7.50;5.77;;;;;;;5.27;62.60;96403.25;4917403;29;20210;-85
2024/01/30 00:34:21;;;;;;;6.57;5.40;;;;;;;5.22;62.77;96404.44;4915872;29;20214;-84
2024/01/30 00:37:24;;;;;;;;;;;;;;;;;;;;;
2024/01/30 00:52:52;;;;;;;10.40;5.73;;;;;;;5.26;63.07;96420.31;4915248;28;20217;-86
2024/01/30 00:55:58;;;;;;;6.53;5.67;;;;;;;5.31;62.87;96419.97;4903239;29;20872;-84
2024/01/30 01:07:59;;;;;;;8.90;5.53;;;;;;;5.29;62.71;96411.59;4911364;29;20213;-84
2024/01/30 01:10:42;;;;;;;11.13;5.60;;;;;;;5.29;62.47;96403.94;4917129;29;20205;-84
2024/01/30 01:13:43;;;;;;;6.17;5.37;;;;;;;5.21;62.95;96395.16;4898252;29;20256;-85
2024/01/30 01:16:39;;;;;;;7.97;5.77;;;;;;;5.22;63.05;96404.44;4898421;29;20226;-85
2024/01/30 01:19:38;;;;;;;;;;;;;;;;;;;;;
2024/01/30 01:22:22;;;;;;;6.67;5.37;;;;;;;5.25;62.87;96420.44;4896657;29;20234;-86
2024/01/30 01:25:10;;;;;;;6.07;5.27;;;;;;;5.19;62.98;96412.38;4914784;29;20206;-84
2024/01/30 01:27:53;;;;;;;5.93;5.17;;;;;;;5.15;62.92;96413.53;4916715;29;20202;-84
2024/01/30 01:30:30;;;;;;;7.10;5.40;;;;;;;5.13;63.11;96417.13;4916580;29;20265;-84
2024/01/30 01:33:02;;;;;;;7.13;5.70;;;;;;;5.08;63.16;96417.50;4914958;29;20210;-86
2024/01/30 01:35:50;;;;;;;7.43;5.70;;;;;;;5.11;62.80;96408.78;4916589;29;20301;-84
2024/01/30 01:38:42;;;;;;;7.07;5.50;;;;;;;5.10;63.33;96413.09;4910669;29;20222;-85
2024/01/30 01:41:10;;;;;;;7.33;5.90;;;;;;;5.12;62.90;96416.31;4911980;29;20218;-85
2024/01/30 01:43:53;;;;;;;9.57;5.80;;;;;;;5.13;63.15;96407.75;4916336;29;20217;-83
2024/01/30 01:46:41;;;;;;;8.37;5.57;;;;;;;5.12;62.85;96407.84;4917074;29;20203;-84
2024/01/30 01:49:19;;;;;;;6.83;5.57;;;;;;;5.13;62.50;96407.75;4916923;29;20245;-84
2024/01/30 01:57:49;;;;;;;;;;;;;;;;;;;;;
2024/01/30 02:00:26;;;;;;;9.10;5.63;;;;;;;5.00;63.20;96419.88;4908767;29;20206;-85
2024/01/30 02:03:21;;;;;;;8.87;5.63;;;;;;;5.00;63.35;96424.16;4916186;29;20210;-84
2024/01/30 02:06:07;;;;;;;6.40;5.40;;;;;;;5.00;63.35;96424.16;4915014;29;20217;-84
2024/01/30 02:08:57;;;;;;;7.00;5.67;;;;;;;4.92;63.53;96429.84;4916795;29;20258;-86
2024/01/30 02:11:24;;;;;;;7.23;5.10;;;;;;;4.92;63.39;96434.97;4909203;29;20214;-85
2024/01/30 02:13:53;;;;;;;8.90;5.53;;;;;;;4.97;63.25;96426.94;4917264;29;20730;-84
2024/01/30 02:16:23;;;;;;;7.60;5.70;;;;;;;4.97;63.42;96430.31;4918037;29;20234;-86
2024/01/30 02:18:50;;;;;;;8.20;5.80;;;;;;;5.01;63.71;96430.84;4917574;29;20308;-86
2024/01/30 02:21:18;;;;;;;7.20;5.93;;;;;;;5.01;63.18;96426.56;4917448;29;20213;-85
2024/01/30 02:23:59;;;;;;;;;;;;;;;;;;;;;
2024/01/30 02:26:40;;;;;;;6.93;5.53;;;;;;;4.97;63.21;96420.09;4911985;29;20202;-85
2024/01/30 02:29:12;;;;;;;9.53;6.27;;;;;;;4.92;63.59;96434.16;4917882;29;20234;-85
2024/01/30 02:32:11;;;;;;;8.07;5.60;;;;;;;4.86;63.61;96438.78;4918062;29;20210;-85
2024/01/30 02:34:46;;;;;;;6.60;5.27;;;;;;;4.83;63.69;96445.88;4917853;29;20210;-85
2024/01/30 02:40:17;;;;;;;8.00;5.50;;;;;;;4.73;63.72;96442.44;4915520;28;20208;-83
2024/01/30 02:42:53;;;;;;;7.00;5.73;;;;;;;4.76;63.73;96429.44;4915343;29;20225;-84
2024/01/30 02:45:23;;;;;;;6.60;5.27;;;;;;;4.75;63.73;96438.84;4920030;29;20210;-83
2024/01/30 02:47:50;;;;;;;5.80;4.97;;;;;;;4.78;63.77;96435.22;4919544;29;20254;-85
2024/01/30 02:50:32;;;;;;;6.20;5.40;;;;;;;4.81;63.67;96440.88;4921077;29;20274;-84
2024/01/30 02:53:00;;;;;;;5.87;5.17;;;;;;;4.75;63.64;96433.72;4907473;29;20211;-84
2024/01/30 02:55:32;;;;;;;6.53;4.93;;;;;;;4.63;63.87;96441.50;4910555;29;20203;-85
2024/01/30 02:58:00;;;;;;;6.93;5.30;;;;;;;4.62;64.33;96434.81;4927854;29;20708;-85
2024/01/30 03:00:26;;;;;;;7.30;5.47;;;;;;;4.58;64.24;96441.88;4924330;29;20210;-85
2024/01/30 03:02:53;;;;;;;7.23;5.30;;;;;;;4.54;64.26;96444.78;4928717;29;20221;-84
2024/01/30 03:05:19;;;;;;;7.57;5.67;;;;;;;4.57;64.22;96439.44;4935256;29;20222;-86
2024/01/30 03:07:46;;;;;;;6.70;4.90;;;;;;;4.52;64.99;96447.44;4937002;29;20213;-85
2024/01/30 03:10:13;;;;;;;7.40;4.90;;;;;;;4.61;64.38;96451.84;4930459;29;20246;-85
2024/01/30 03:12:42;;;;;;;5.60;5.00;;;;;;;4.67;64.43;96445.44;4908717;29;20251;-84
2024/01/30 03:15:10;;;;;;;6.17;4.77;;;;;;;4.57;64.86;96454.75;4910060;29;20206;-84
2024/01/30 03:17:37;;;;;;;6.20;4.67;;;;;;;4.56;64.39;96451.38;4924192;29;20269;-86
2024/01/30 03:20:06;;;;;;;8.00;5.00;;;;;;;4.59;64.09;96435.84;4925056;29;20217;-85
2024/01/30 03:22:35;;;;;;;5.70;4.30;;;;;;;4.62;64.42;96430.50;4924493;29;20210;-84
2024/01/30 03:25:02;;;;;;;6.10;4.60;;;;;;;4.65;64.34;96435.34;4923933;29;20203;-85
2024/01/30 03:27:29;;;;;;;5.10;4.30;;;;;;;4.57;64.36;96431.78;4923814;29;20206;-86
2024/01/30 03:29:58;;;;;;;6.97;4.80;;;;;;;4.52;64.20;96424.50;4924051;29;20649;-85
2024/01/30 03:32:24;;;;;;;5.77;4.30;;;;;;;4.53;64.07;96440.59;4921375;29;20210;-84
2024/01/30 03:34:51;;;;;;;6.53;4.83;;;;;;;4.59;64.09;96424.84;4923949;29;20220;-85
2024/01/30 03:37:17;;;;;;;5.90;4.67;;;;;;;4.60;64.08;96429.00;4923419;29;20236;-85
2024/01/30 03:39:43;;;;;;;7.57;5.00;;;;;;;4.60;64.05;96418.81;4923279;29;20230;-85
2024/01/30 03:42:10;;;;;;;5.10;3.93;;;;;;;4.55;64.16;96424.25;4923375;29;20202;-84
2024/01/30 03:44:38;;;;;;;8.80;5.40;;;;;;;4.47;64.32;96434.22;4914464;29;20213;-84
2024/01/30 03:47:04;;;;;;;6.07;4.73;;;;;;;4.48;64.75;96435.84;4906200;29;20202;-83
2024/01/30 03:49:31;;;;;;;5.83;4.53;;;;;;;4.52;64.49;96424.50;4922660;29;20229;-85
2024/01/30 03:51:57;;;;;;;7.30;4.63;;;;;;;4.51;64.18;96423.69;4922677;29;20206;-85
2024/01/30 03:54:23;;;;;;;5.57;4.53;;;;;;;4.48;64.31;96429.00;4922352;29;20214;-86
2024/01/30 03:56:50;;;;;;;5.17;4.07;;;;;;;4.47;64.35;96429.94;4908833;29;20226;-85
2024/01/30 03:59:17;;;;;;;5.73;4.60;;;;;;;4.46;64.62;96435.16;4903662;29;20235;-85
2024/01/30 04:01:47;;;;;;;6.07;4.67;;;;;;;4.46;64.34;96432.59;4902801;29;20210;-85
2024/01/30 04:04:13;;;;;;;7.00;4.93;;;;;;;4.49;64.52;96430.63;4911876;29;20214;-84
2024/01/30 04:06:40;;;;;;;5.67;4.47;;;;;;;4.50;64.33;96442.47;4922561;29;20203;-85
2024/01/30 04:09:06;;;;;;;6.00;4.70;;;;;;;4.48;64.45;96436.66;4922331;29;20226;-85
2024/01/30 04:11:33;;;;;;;5.83;4.50;;;;;;;4.41;64.43;96435.53;4913859;29;20207;-85
2024/01/30 04:13:59;;;;;;;4.97;4.30;;;;;;;4.32;64.81;96436.22;4902092;29;20203;-83
2024/01/30 04:16:27;;;;;;;4.60;4.10;;;;;;;4.35;64.67;96445.38;4903417;29;20206;-86
2024/01/30 04:18:55;;;;;;;5.03;4.53;;;;;;;4.39;64.92;96450.13;4903275;29;20234;-85
2024/01/30 04:21:22;;;;;;;5.63;4.60;;;;;;;4.47;64.51;96450.34;4918761;29;20217;-85
2024/01/30 04:23:50;;;;;;;5.40;4.20;;;;;;;4.47;64.77;96441.88;4922164;29;20645;-85
2024/01/30 04:26:16;;;;;;;5.27;4.13;;;;;;;4.42;64.14;96437.16;4921724;29;20206;-85
2024/01/30 04:28:45;;;;;;;8.03;4.20;;;;;;;4.29;64.64;96440.75;4922072;29;20230;-85
2024/01/30 04:31:12;;;;;;;4.33;3.90;;;;;;;4.32;64.93;96450.72;4921754;29;20213;-85
2024/01/30 04:33:39;;;;;;;4.90;3.97;;;;;;;4.36;64.92;96452.91;4921547;29;20217;-85
2024/01/30 04:36:11;;;;;;;6.57;4.10;;;;;;;4.36;64.55;96439.34;4919604;29;20206;-85
2024/01/30 04:38:37;;;;;;;4.70;3.93;;;;;;;4.41;64.30;96432.19;4920820;29;20257;-85
2024/01/30 04:41:04;;;;;;;7.90;4.27;;;;;;;4.46;64.25;96424.97;4912926;29;20413;-84
2024/01/30 04:43:30;;;;;;;4.73;4.20;;;;;;;4.46;64.11;96419.84;4902228;29;20206;-84
2024/01/30 04:46:00;;;;;;;4.60;4.10;;;;;;;4.43;64.27;96418.34;4902243;29;20207;-86
2024/01/30 04:48:34;;;;;;;6.27;4.53;;;;;;;4.32;64.27;96422.66;4902028;29;20222;-85
2024/01/30 04:51:04;;;;;;;4.33;3.90;;;;;;;4.25;64.54;96435.06;4902730;29;20214;-84
2024/01/30 04:53:33;;;;;;;7.37;4.10;;;;;;;4.27;64.85;96445.94;4916573;29;20221;-85
2024/01/30 04:56:00;;;;;;;6.47;3.77;;;;;;;4.28;64.49;96439.13;4914597;29;20199;-85
2024/01/30 04:58:27;;;;;;;6.67;4.00;;;;;;;4.33;64.57;96427.66;4901750;29;20230;-85
2024/01/30 05:00:56;;;;;;;5.20;4.17;;;;;;;4.31;64.14;96431.25;4901916;29;20289;-85
2024/01/30 05:03:24;;;;;;;6.30;3.60;;;;;;;4.29;64.42;96435.63;4902033;29;20294;-85
2024/01/30 05:05:51;;;;;;;4.17;3.53;;;;;;;4.32;64.29;96441.31;4902418;29;20211;-83
2024/01/30 05:08:18;;;;;;;4.53;3.80;;;;;;;4.27;64.63;96445.94;4905785;29;20236;-84
2024/01/30 05:10:47;;;;;;;4.33;3.60;;;;;;;4.31;64.53;96444.78;4918764;29;20237;-84
2024/01/30 05:13:16;;;;;;;3.77;3.37;;;;;;;4.26;64.22;96441.78;4900928;29;20218;-85
2024/01/30 05:15:42;;;;;;;4.40;3.50;;;;;;;4.17;64.87;96445.03;4902146;29;20241;-85
2024/01/30 05:18:09;;;;;;;3.63;3.30;;;;;;;4.16;64.58;96451.06;4917158;29;20233;-85
2024/01/30 05:20:36;;;;;;;5.70;3.30;;;;;;;4.16;64.70;96459.53;4920143;29;20237;-85
2024/01/30 05:23:04;;;;;;;5.67;3.60;;;;;;;4.16;64.70;96451.06;4920057;29;20260;-85
2024/01/30 05:25:33;;;;;;;4.03;3.60;;;;;;;4.13;64.69;96464.03;4918342;29;20217;-85
2024/01/30 05:28:02;;;;;;;3.70;3.30;;;;;;;4.11;65.12;96464.16;4919066;29;20730;-85
2024/01/30 05:30:29;;;;;;;4.50;3.47;;;;;;;3.99;65.22;96482.09;4920186;29;20216;-85
2024/01/30 05:32:56;;;;;;;5.03;3.90;;;;;;;3.99;65.26;96487.19;4919598;29;20206;-85
2024/01/30 05:35:23;;;;;;;4.57;3.40;;;;;;;4.05;65.35;96484.16;4916491;29;20211;-85
2024/01/30 05:37:50;;;;;;;3.93;3.40;;;;;;;4.12;65.15;96477.69;4908002;29;20233;-85
2024/01/30 05:40:16;;;;;;;4.33;3.67;;;;;;;4.14;65.00;96475.84;4902412;29;20206;-86
2024/01/30 05:42:43;;;;;;;5.10;3.10;;;;;;;4.05;65.05;96474.78;4919540;29;20240;-85
2024/01/30 05:45:11;;;;;;;4.53;3.30;;;;;;;4.08;64.96;96484.75;4917521;29;20202;-84
2024/01/30 05:47:40;;;;;;;5.63;3.57;;;;;;;4.12;64.88;96487.88;4917970;29;20199;-85
2024/01/30 05:50:11;;;;;;;5.10;3.40;;;;;;;4.10;65.19;96482.09;4916808;29;20210;-85
2024/01/30 05:52:38;;;;;;;6.50;3.47;;;;;;;4.09;65.07;96486.38;4917980;29;20213;-85
2024/01/30 05:55:07;;;;;;;4.93;3.33;;;;;;;4.05;64.79;96495.16;4917535;29;20214;-84
2024/01/30 05:57:33;;;;;;;6.17;3.50;;;;;;;4.03;65.01;96491.94;4909890;29;20248;-84
2024/01/30 06:00:00;;;;;;;3.97;3.23;;;;;;;4.03;65.28;96493.69;4916921;29;20217;-85
2024/01/30 06:02:29;;;;;;;5.27;3.50;;;;;;;4.05;64.97;96494.34;4916886;29;20216;-85
2024/01/30 06:04:55;;;;;;;5.07;3.30;;;;;;;4.08;65.37;96496.69;4917831;29;20206;-84
2024/01/30 06:07:22;;;;;;;4.70;3.07;;;;;;;4.06;65.07;96490.88;4918601;29;20202;-84
2024/01/30 06:09:53;;;;;;;4.67;3.67;;;;;;;4.04;64.93;96485.91;4917404;29;20716;-84
2024/01/30 06:12:21;;;;;;;4.57;3.13;;;;;;;4.04;64.89;96490.22;4915393;29;20198;-85
2024/01/30 06:14:48;;;;;;;4.53;3.47;;;;;;;4.04;65.23;96490.22;4915088;29;20269;-86
2024/01/30 06:17:14;;;;;;;4.00;3.50;;;;;;;4.02;65.38;96495.41;4917422;29;20210;-85
2024/01/30 06:19:49;;;;;;;5.23;3.57;;;;;;;3.98;65.40;96496.56;4917593;29;20230;-85
2024/01/30 06:22:25;;;;;;;5.63;3.70;;;;;;;3.95;65.50;96501.88;4918196;29;20276;-85
2024/01/30 06:24:52;;;;;;;5.43;3.57;;;;;;;3.92;65.63;96503.84;4916956;29;20216;-84
2024/01/30 06:27:18;;;;;;;5.20;4.03;;;;;;;3.98;65.63;96509.31;4917612;29;20217;-84
2024/01/30 06:29:45;;;;;;;4.13;3.60;;;;;;;4.04;65.35;96513.94;4915279;29;20249;-85
2024/01/30 06:32:11;;;;;;;5.30;3.90;;;;;;;4.09;65.28;96516.97;4915676;29;20554;-84
2024/01/30 06:34:39;;;;;;;6.00;4.20;;;;;;;4.14;65.07;96514.06;4910664;29;20211;-84
2024/01/30 06:37:07;;;;;;;8.80;5.50;;;;;;;4.20;65.02;96508.53;4918234;29;20288;-84
2024/01/30 06:39:34;;;;;;;18.93;13.00;;;;;;;4.26;65.46;96528.44;4921364;29;20233;-85
2024/01/30 06:42:00;;;;;;;11.57;7.67;;;;;;;4.34;65.21;96517.69;4921978;29;20281;-84
2024/01/30 06:44:26;;;;;;;9.60;4.87;;;;;;;4.35;64.89;96511.66;4920153;29;20202;-83
2024/01/30 06:46:53;;;;;;;11.17;4.60;;;;;;;4.33;64.75;96514.31;4919410;29;20221;-85
2024/01/30 06:49:21;;;;;;;8.83;4.90;;;;;;;4.31;64.74;96511.06;4921915;29;20237;-86
2024/01/30 06:51:48;;;;;;;8.77;4.80;;;;;;;4.30;64.99;96513.72;4921861;29;20297;-84
2024/01/30 06:54:16;;;;;;;7.80;4.73;;;;;;;4.32;65.38;96532.28;4921797;29;20217;-84
2024/01/30 06:56:42;;;;;;;11.10;4.20;;;;;;;4.29;65.51;96529.94;4909308;29;20207;-83
2024/01/30 06:59:08;;;;;;;8.07;4.10;;;;;;;4.25;65.22;96526.00;4903689;29;20248;-85
2024/01/30 07:01:38;;;;;;;4.47;3.67;;;;;;;4.24;65.36;96529.47;4910037;29;20228;-84
2024/01/30 07:04:04;;;;;;;6.23;4.23;;;;;;;4.19;65.01;96524.75;4922340;29;20260;-84
2024/01/30 07:06:31;;;;;;;6.43;4.03;;;;;;;4.11;65.77;96540.59;4922510;29;20210;-85
2024/01/30 07:08:57;;;;;;;10.47;3.80;;;;;;;4.20;65.94;96551.03;4921974;29;20222;-84
2024/01/30 07:11:25;;;;;;;9.93;4.53;;;;;;;4.42;65.19;96539.13;4914569;29;20195;-84
2024/01/30 07:13:52;;;;;;;14.33;4.00;;;;;;;4.57;64.94;96514.22;4903287;29;20207;-84
2024/01/30 07:16:18;;;;;;;9.20;4.20;;;;;;;4.84;64.34;96503.63;4903009;29;20203;-84
2024/01/30 07:18:45;;;;;;;8.07;4.07;;;;;;;5.24;63.89;96485.19;4919315;29;20237;-83
2024/01/30 07:21:12;;;;;;;7.00;4.23;;;;;;;5.67;62.46;96436.59;4922189;29;20207;-85
2024/01/30 07:23:39;;;;;;;5.13;3.90;;;;;;;6.14;60.95;96384.94;4922332;29;20202;-84
2024/01/30 07:26:08;;;;;;;7.73;3.63;;;;;;;6.57;60.27;96340.34;4922377;29;20214;-84
2024/01/30 07:28:37;;;;;;;4.50;3.40;;;;;;;6.96;58.35;96278.91;4917590;29;20285;-84
2024/01/30 07:31:04;;;;;;;9.60;3.80;;;;;;;7.28;57.50;96213.63;4918027;29;20322;-84
2024/01/30 07:33:31;;;;;;;5.83;3.13;;;;;;;7.67;56.11;96140.88;4920394;29;20217;-84
2024/01/30 07:35:57;;;;;;;6.10;3.53;;;;;;;8.13;55.47;96107.31;4922280;29;20217;-84
2024/01/30 07:38:25;;;;;;;8.30;4.10;;;;;;;8.40;53.65;96054.31;4921588;29;20241;-85
2024/01/30 07:40:52;;;;;;;6.17;3.27;;;;;;;8.54;52.98;95981.91;4920696;29;20210;-83
2024/01/30 07:43:19;;;;;;;3.93;2.80;;;;;;;8.68;52.87;95968.47;4921119;29;20206;-85
2024/01/30 07:45:53;;;;;;;6.57;3.40;;;;;;;8.78;52.38;95940.91;4920342;29;20248;-83
2024/01/30 07:48:33;;;;;;;;;;;;;;;;;;;;;
2024/01/30 07:51:09;;;;;;;5.47;3.00;;;;;;;9.13;51.10;95878.22;4921169;29;20270;-84
2024/01/30 07:53:36;;;;;;;3.97;2.80;;;;;;;9.23;50.51;95842.91;4902923;29;20600;-84
2024/01/30 07:56:08;;;;;;;3.87;2.90;;;;;;;9.34;50.74;95852.84;4909977;29;20684;-83
2024/01/30 07:58:38;;;;;;;4.23;3.30;;;;;;;9.39;50.71;95838.72;4920147;29;20236;-84
2024/01/30 08:01:24;;;;;;;6.93;2.93;;;;;;;9.44;49.52;95796.13;4921041;29;20210;-84
2024/01/30 08:03:53;;;;;;;4.37;2.73;;;;;;;9.43;50.39;95825.34;4904420;29;20210;-84
2024/01/30 08:06:27;;;;;;;8.13;3.63;;;;;;;9.37;50.59;95853.47;4911332;29;20214;-84
2024/01/30 08:08:57;;;;;;;7.13;3.03;;;;;;;9.36;51.00;95870.66;4920678;29;20321;-84
2024/01/30 08:11:28;;;;;;;5.50;3.93;;;;;;;9.35;51.32;95898.13;4914897;29;20198;-85
2024/01/30 08:14:14;;;;;;;6.90;4.10;;;;;;;9.36;51.20;95880.94;4902375;29;20207;-83
2024/01/30 08:16:55;;;;;;;;;;;;;;;;;;;;;
2024/01/30 08:19:21;;;;;;;7.50;4.30;;;;;;;9.66;50.48;95866.59;4903665;29;20321;-84
2024/01/30 08:21:55;;;;;;;8.97;3.70;;;;;;;9.82;50.50;95860.63;4906038;29;20218;-84
2024/01/30 08:24:22;;;;;;;7.90;3.60;;;;;;;9.96;49.79;95821.38;4918370;29;20297;-83
2024/01/30 08:26:48;;;;;;;9.93;4.00;;;;;;;10.17;49.71;95834.47;4908746;29;20633;-86
2024/01/30 08:29:15;;;;;;;6.57;4.10;;;;;;;10.35;49.89;95827.34;4900497;29;20223;-86
2024/01/30 08:31:42;;;;;;;6.33;3.00;;;;;;;10.50;48.67;95767.41;4901904;29;20215;-84
2024/01/30 08:34:10;;;;;;;7.73;3.80;;;;;;;10.65;48.77;95784.50;4902901;29;20209;-84
2024/01/30 08:36:37;;;;;;;9.17;3.70;;;;;;;10.94;47.96;95740.03;4902956;29;20216;-83
2024/01/30 08:39:05;;;;;;;6.13;3.40;;;;;;;11.12;47.19;95705.41;4913258;29;20603;-84
2024/01/30 08:41:31;;;;;;;7.00;3.40;;;;;;;11.29;46.89;95661.22;4920601;29;20217;-84
2024/01/30 08:43:58;;;;;;;7.97;3.67;;;;;;;11.45;47.16;95670.53;4919872;29;20213;-87
2024/01/30 08:46:24;;;;;;;9.07;4.00;;;;;;;11.52;46.76;95650.81;4919487;29;20240;-83
2024/01/30 08:48:50;;;;;;;8.03;3.47;;;;;;;11.60;46.96;95660.22;4921552;29;20249;-83
2024/01/30 08:51:18;;;;;;;6.77;3.30;;;;;;;11.64;46.29;95644.19;4920975;29;20206;-84
2024/01/30 08:53:55;;;;;;;4.73;3.23;;;;;;;11.76;45.87;95600.69;4920887;29;20603;-83
2024/01/30 08:56:23;;;;;;;5.67;3.40;;;;;;;11.84;45.67;95602.38;4916158;29;20233;-83
2024/01/30 08:58:51;;;;;;;6.97;3.30;;;;;;;11.96;45.06;95573.31;4920105;29;20289;-84
2024/01/30 09:01:17;;;;;;;5.77;3.10;;;;;;;12.05;45.56;95587.69;4919046;29;20210;-84
2024/01/30 09:03:46;;;;;;;6.73;3.50;;;;;;;12.06;45.94;95615.09;4920336;29;20210;-84
2024/01/30 09:06:13;;;;;;;6.53;3.30;;;;;;;12.12;45.69;95608.41;4920257;29;20810;-82
2024/01/30 09:08:41;;;;;;;6.23;3.17;;;;;;;12.16;46.21;95635.41;4919675;29;20613;-83
2024/01/30 09:11:10;;;;;;;6.90;3.40;;;;;;;12.19;46.36;95655.69;4917324;29;20292;-85
2024/01/30 09:13:36;;;;;;;8.47;3.60;;;;;;;12.27;46.58;95691.75;4918353;29;20214;-86
2024/01/30 09:16:02;;;;;;;6.30;3.60;;;;;;;12.40;46.10;95647.94;4918160;29;20206;-85
2024/01/30 09:18:29;;;;;;;7.40;3.10;;;;;;;12.53;45.51;95608.50;4917861;29;20237;-83
2024/01/30 09:20:55;;;;;;;5.37;3.00;;;;;;;12.66;44.57;95572.47;4912458;29;20639;-85
2024/01/30 09:23:22;;;;;;;5.60;3.30;;;;;;;12.82;44.29;95539.56;4907953;29;20218;-84
2024/01/30 09:25:49;;;;;;;8.00;3.30;;;;;;;12.90;43.95;95547.94;4899670;29;20229;-83
2024/01/30 09:28:17;;;;;;;4.97;2.77;;;;;;;13.03;42.78;95469.66;4918840;29;20230;-82
2024/01/30 09:30:43;;;;;;;4.43;2.90;;;;;;;13.18;43.73;95519.47;4920228;29;20206;-83
2024/01/30 09:33:15;;;;;;;5.43;2.83;;;;;;;13.22;42.82;95468.16;4918888;29;20213;-87
2024/01/30 09:35:41;;;;;;;7.40;2.77;;;;;;;13.31;43.08;95470.34;4918893;29;20224;-85
2024/01/30 09:38:08;;;;;;;4.20;2.83;;;;;;;13.41;42.34;95441.53;4917269;29;20264;-86
2024/01/30 09:40:34;;;;;;;7.77;2.87;;;;;;;13.53;42.36;95439.94;4916494;29;20736;-87
2024/01/30 09:43:02;;;;;;;5.00;2.80;;;;;;;13.61;41.49;95392.41;4915224;29;20580;-85
2024/01/30 09:45:28;;;;;;;5.20;2.83;;;;;;;13.67;41.10;95376.06;4916495;29;20233;-87
2024/01/30 09:47:55;;;;;;;6.33;2.60;;;;;;;13.74;40.87;95351.00;4916478;29;20221;-86
2024/01/30 09:50:24;;;;;;;5.33;2.43;;;;;;;13.83;40.14;95313.56;4916229;29;20210;-85
2024/01/30 09:52:52;;;;;;;4.90;2.13;;;;;;;13.94;39.67;95283.66;4917115;29;20241;-86
2024/01/30 09:55:23;;;;;;;2.77;2.23;;;;;;;14.01;39.66;95271.50;4915422;29;20206;-86
2024/01/30 10:00:28;;;;;;;7.00;2.70;;;;;;;14.16;41.37;95378.97;3043578;26;20232;-85
2024/01/30 10:03:11;;;;;;;6.43;2.70;;;;;;;14.13;40.57;95332.00;4938120;29;20213;-84
2024/01/30 10:09:55;;;;;;;4.40;2.20;;;;;;;14.30;39.04;95239.09;4770610;29;20250;-84
2024/01/30 10:13:30;;;;;;;3.93;2.20;;;;;;;14.32;38.87;95240.47;4939489;29;20197;-85
2024/01/30 10:16:47;;;;;;;3.72;1.98;;;;;;;14.41;40.32;95322.16;4871032;29;20218;-84
2024/01/30 10:19:15;;;;;;;5.00;2.50;;;;;;;14.33;41.66;95399.25;4938775;29;20598;-85
2024/01/30 10:21:41;;;;;;;3.00;2.70;;;;;;;14.29;42.60;95476.56;4921250;29;20206;-85
2024/01/30 10:24:08;;;;;;;7.50;2.63;;;;;;;14.37;41.42;95415.97;4923091;29;20696;-84
2024/01/30 10:26:38;;;;;;;3.55;2.50;;;;;;;14.34;40.62;95341.28;4922971;29;20197;-85
2024/01/30 10:29:05;;;;;;;4.38;2.65;;;;;;;14.35;41.59;95395.47;4936945;29;20264;-84
2024/01/30 10:31:31;;;;;;;5.97;3.20;;;;;;;14.34;40.12;95315.38;4938586;29;20205;-84
2024/01/30 10:33:58;;;;;;;6.65;3.20;;;;;;;14.46;40.43;95313.75;4942001;29;20213;-84
2024/01/30 10:36:29;;;;;;;5.47;2.78;;;;;;;14.56;40.99;95357.34;4941804;29;20626;-84
2024/01/30 10:39:00;;;;;;;2.58;1.98;;;;;;;14.65;40.75;95348.31;4941377;29;20229;-85
2024/01/30 10:41:28;;;;;;;6.60;2.17;;;;;;;14.73;39.60;95265.16;4940837;29;20257;-84
2024/01/30 10:44:03;;;;;;;6.85;2.42;;;;;;;14.70;38.79;95235.28;4940791;29;20205;-86
2024/01/30 10:46:33;;;;;;;4.63;2.15;;;;;;;14.47;37.84;95131.41;4938652;29;20229;-84
2024/01/30 10:49:00;;;;;;;4.40;1.90;;;;;;;14.49;38.13;95139.78;4939922;29;20226;-85
2024/01/30 10:51:28;;;;;;;6.47;2.17;;;;;;;14.64;38.58;95150.59;4939355;29;20216;-86
2024/01/30 10:53:56;;;;;;;2.72;1.85;;;;;;;14.78;38.53;95149.50;4939475;29;20205;-85
2024/01/30 10:56:24;;;;;;;2.33;1.90;;;;;;;14.95;38.59;95151.56;4939477;29;20213;-85
2024/01/30 10:58:51;;;;;;;3.40;2.03;;;;;;;15.08;37.74;95131.47;4939721;29;20241;-85
2024/01/30 11:01:19;;;;;;;3.25;2.08;;;;;;;15.19;37.42;95097.06;4939190;29;20217;-85
2024/01/30 11:03:59;;;;;;;3.80;1.90;;;;;;;15.25;37.09;95079.81;4937946;29;20247;-85
2024/01/30 11:06:32;;;;;;;1.98;1.73;;;;;;;15.36;37.29;95084.28;4939293;29;20240;-85
2024/01/30 11:09:04;;;;;;;2.35;1.65;;;;;;;15.44;37.38;95083.19;4939047;29;20613;-85
2024/01/30 11:11:51;;;;;;;2.78;1.60;;;;;;;15.27;35.73;94996.59;4939477;29;20301;-85
2024/01/30 11:14:17;;;;;;;6.13;2.03;;;;;;;15.26;36.56;95020.94;4939291;29;20197;-85
2024/01/30 11:16:44;;;;;;;3.78;1.73;;;;;;;15.33;37.06;95063.16;4926596;29;20229;-85
2024/01/30 11:19:14;;;;;;;3.38;1.98;;;;;;;15.43;36.77;95029.69;4923482;29;20316;-84
2024/01/30 11:21:43;;;;;;;5.72;2.35;;;;;;;15.54;36.23;95024.56;4939123;29;20209;-86
2024/01/30 11:24:10;;;;;;;3.63;2.33;;;;;;;15.62;36.14;95012.31;4938339;29;20208;-84
2024/01/30 11:26:36;;;;;;;4.65;2.58;;;;;;;15.60;35.73;94983.19;4937160;29;20260;-85
2024/01/30 11:29:04;;;;;;;4.35;2.55;;;;;;;15.51;36.17;95006.84;4937060;29;20248;-86
2024/01/30 11:31:31;;;;;;;4.82;2.13;;;;;;;15.34;37.18;95039.59;4935302;29;20224;-85
2024/01/30 11:33:58;;;;;;;14.73;2.75;;;;;;;15.27;37.04;95038.88;4935963;29;20864;-85
2024/01/30 11:36:27;;;;;;;6.28;2.70;;;;;;;15.28;36.65;95034.50;4931069;29;20220;-85
2024/01/30 11:38:55;;;;;;;5.75;2.83;;;;;;;15.34;36.96;95049.19;4937892;29;20230;-85
2024/01/30 11:41:25;;;;;;;6.90;2.70;;;;;;;15.28;37.32;95057.84;4935594;29;20213;-85
2024/01/30 11:43:54;;;;;;;4.57;2.25;;;;;;;15.27;37.33;95053.66;4936288;29;20240;-85
2024/01/30 11:46:20;;;;;;;5.40;2.40;;;;;;;15.28;37.66;95089.75;4940276;29;20226;-85
2024/01/30 11:48:50;;;;;;;5.53;2.00;;;;;;;15.18;37.29;95068.75;4940018;28;20230;-85
2024/01/30 11:51:19;;;;;;;5.18;2.25;;;;;;;15.16;37.39;95058.59;4935582;29;20953;-85
2024/01/30 11:53:51;;;;;;;5.65;2.45;;;;;;;15.13;37.20;95046.03;4937038;29;20217;-86
2024/01/30 11:56:19;;;;;;;4.30;2.67;;;;;;;15.12;37.52;95061.81;4937764;29;20198;-85
2024/01/30 11:58:45;;;;;;;5.25;3.58;;;;;;;15.15;37.25;95057.00;4937421;29;20229;-85
2024/01/30 12:01:12;;;;;;;4.90;2.80;;;;;;;15.30;37.59;95092.94;4936323;29;20226;-84
2024/01/30 12:03:39;;;;;;;3.42;2.03;;;;;;;15.26;36.21;94995.00;4937112;29;20675;-85
2024/01/30 12:06:06;;;;;;;3.22;1.98;;;;;;;15.32;36.77;95007.13;4936452;29;20497;-85
2024/01/30 12:08:32;;;;;;;5.30;2.05;;;;;;;15.49;37.18;95037.41;4934517;29;20711;-85
2024/01/30 12:11:01;;;;;;;4.32;2.35;;;;;;;15.66;37.06;95058.38;4932293;29;20235;-84
2024/01/30 12:13:29;;;;;;;4.03;1.80;;;;;;;15.82;36.47;95012.81;4935139;29;20205;-86
2024/01/30 12:15:59;;;;;;;1.95;1.77;;;;;;;15.93;35.92;94969.72;4936192;29;20209;-85
2024/01/30 12:18:26;;;;;;;2.92;2.00;;;;;;;15.91;34.89;94904.25;4935940;29;20342;-85
2024/01/30 12:20:59;;;;;;;2.60;1.92;;;;;;;15.90;35.07;94908.66;4936218;29;20225;-84
2024/01/30 12:23:27;;;;;;;2.63;1.98;;;;;;;15.71;36.29;94952.09;4935141;29;20221;-86
2024/01/30 12:25:53;;;;;;;3.95;1.95;;;;;;;15.52;35.85;94946.16;4936564;29;20702;-85
2024/01/30 12:28:20;;;;;;;4.00;2.00;;;;;;;15.38;36.21;94947.38;4936451;29;20236;-84
2024/01/30 12:30:48;;;;;;;4.00;2.00;;;;;;;15.28;36.32;94954.88;4937568;29;20208;-84
2024/01/30 12:33:17;;;;;;;3.15;1.88;;;;;;;15.17;36.24;94943.47;4936392;29;20229;-86
2024/01/30 12:35:47;;;;;;;3.55;1.60;;;;;;;15.10;36.81;94971.28;4936099;29;20212;-84
2024/01/30 12:38:14;;;;;;;3.42;1.80;;;;;;;15.12;36.48;94953.72;4936109;29;20253;-85
2024/01/30 12:40:40;;;;;;;3.17;1.77;;;;;;;15.14;36.00;94940.53;4933554;29;20314;-85
2024/01/30 12:43:08;;;;;;;5.32;1.75;;;;;;;15.18;35.71;94905.38;4935573;29;20229;-85
2024/01/30 12:45:34;;;;;;;2.25;1.70;;;;;;;15.16;35.61;94895.22;4917240;29;20210;-85
2024/01/30 12:48:04;;;;;;;3.58;1.98;;;;;;;15.17;35.62;94890.81;4916832;29;20210;-84